<?xml version="1.0" encoding="utf-8"?>
<gpx xmlns:xsi="http://www.w3.org/2001/XMLSchema-instance" xmlns:xsd="http://www.w3.org/2001/XMLSchema" version="1.1" creator="Shapelink.com" xmlns="http://www.topografix.com/GPX/1/1" xmlns:gpxtpx="http://www.garmin.com/xmlschemas/TrackPointExtension/v1">
  <metadata>
    <name>Övrigt 3.35 km, 2020-08-29</name>
    <desc></desc>
    <author><name>Marian Moron</name></author> 
    <time>2020-08-29T12:17:31Z</time>
  </metadata>
  <trk>
    <name>Övrigt 3.35 km, 2020-08-29</name>
    <trkseg>
      <trkpt lat="51.216885309206" lon="4.481529434431">
        <ele>0</ele>
        <time>2020-08-29T12:17:31Z</time>
      </trkpt>
      <trkpt lat="51.216914981132" lon="4.481500852152">
        <ele>0</ele>
        <time>2020-08-29T12:17:34Z</time>
      </trkpt>
      <trkpt lat="51.217036770139" lon="4.481321563311">
        <ele>0</ele>
        <time>2020-08-29T12:17:51Z</time>
      </trkpt>
      <trkpt lat="51.216872568718" lon="4.481052504321">
        <ele>0</ele>
        <time>2020-08-29T12:18:28Z</time>
      </trkpt>
      <trkpt lat="51.21685060814" lon="4.48175918231">
        <ele>0</ele>
        <time>2020-08-29T12:19:09Z</time>
      </trkpt>
      <trkpt lat="51.216841471869" lon="4.481813497022">
        <ele>0</ele>
        <time>2020-08-29T12:19:10Z</time>
      </trkpt>
      <trkpt lat="51.217012043534" lon="4.482088674799">
        <ele>0</ele>
        <time>2020-08-29T12:19:54Z</time>
      </trkpt>
      <trkpt lat="51.216987987481" lon="4.482110048644">
        <ele>0</ele>
        <time>2020-08-29T12:19:57Z</time>
      </trkpt>
      <trkpt lat="51.216819678929" lon="4.482210547625">
        <ele>0</ele>
        <time>2020-08-29T12:20:15Z</time>
      </trkpt>
      <trkpt lat="51.216707612926" lon="4.482235441868">
        <ele>0</ele>
        <time>2020-08-29T12:20:26Z</time>
      </trkpt>
      <trkpt lat="51.216504016575" lon="4.48225874355">
        <ele>0</ele>
        <time>2020-08-29T12:20:43Z</time>
      </trkpt>
      <trkpt lat="51.216061368436" lon="4.48234507712">
        <ele>0</ele>
        <time>2020-08-29T12:21:24Z</time>
      </trkpt>
      <trkpt lat="51.216038234392" lon="4.482345663853">
        <ele>0</ele>
        <time>2020-08-29T12:21:26Z</time>
      </trkpt>
      <trkpt lat="51.216020716221" lon="4.482343149283">
        <ele>0</ele>
        <time>2020-08-29T12:21:28Z</time>
      </trkpt>
      <trkpt lat="51.215569099449" lon="4.482281877594">
        <ele>0</ele>
        <time>2020-08-29T12:22:09Z</time>
      </trkpt>
      <trkpt lat="51.215544205206" lon="4.482336443763">
        <ele>0</ele>
        <time>2020-08-29T12:22:13Z</time>
      </trkpt>
      <trkpt lat="51.215539008428" lon="4.482698290386">
        <ele>0</ele>
        <time>2020-08-29T12:22:33Z</time>
      </trkpt>
      <trkpt lat="51.215558538255" lon="4.483425839306">
        <ele>0</ele>
        <time>2020-08-29T12:23:14Z</time>
      </trkpt>
      <trkpt lat="51.215578068082" lon="4.484024055509">
        <ele>0.2</ele>
        <time>2020-08-29T12:23:49Z</time>
      </trkpt>
      <trkpt lat="51.215588880733" lon="4.48473978595">
        <ele>0</ele>
        <time>2020-08-29T12:24:31Z</time>
      </trkpt>
      <trkpt lat="51.215533727831" lon="4.48518402665">
        <ele>0</ele>
        <time>2020-08-29T12:24:57Z</time>
      </trkpt>
      <trkpt lat="51.215477317644" lon="4.485225517055">
        <ele>0</ele>
        <time>2020-08-29T12:25:04Z</time>
      </trkpt>
      <trkpt lat="51.215476060359" lon="4.485252590592">
        <ele>0</ele>
        <time>2020-08-29T12:25:10Z</time>
      </trkpt>
      <trkpt lat="51.215459883292" lon="4.485260553397">
        <ele>0</ele>
        <time>2020-08-29T12:25:17Z</time>
      </trkpt>
      <trkpt lat="51.215437671257" lon="4.485253680239">
        <ele>0</ele>
        <time>2020-08-29T12:25:20Z</time>
      </trkpt>
      <trkpt lat="51.215391403169" lon="4.485262062139">
        <ele>0</ele>
        <time>2020-08-29T12:25:29Z</time>
      </trkpt>
      <trkpt lat="51.215205911722" lon="4.484886133924">
        <ele>0</ele>
        <time>2020-08-29T12:26:31Z</time>
      </trkpt>
      <trkpt lat="51.215215718545" lon="4.484877332929">
        <ele>0</ele>
        <time>2020-08-29T12:26:32Z</time>
      </trkpt>
      <trkpt lat="51.215218065477" lon="4.484818743448">
        <ele>0</ele>
        <time>2020-08-29T12:26:37Z</time>
      </trkpt>
      <trkpt lat="51.21523709239" lon="4.484757807035">
        <ele>0</ele>
        <time>2020-08-29T12:26:42Z</time>
      </trkpt>
      <trkpt lat="51.215461978767" lon="4.484193537527">
        <ele>3.6</ele>
        <time>2020-08-29T12:27:24Z</time>
      </trkpt>
      <trkpt lat="51.215438006533" lon="4.483460959467">
        <ele>0</ele>
        <time>2020-08-29T12:28:05Z</time>
      </trkpt>
      <trkpt lat="51.215448064813" lon="4.483062986855">
        <ele>0</ele>
        <time>2020-08-29T12:28:34Z</time>
      </trkpt>
      <trkpt lat="51.215419314896" lon="4.483088300193">
        <ele>0</ele>
        <time>2020-08-29T12:28:49Z</time>
      </trkpt>
      <trkpt lat="51.215414956308" lon="4.48306172957">
        <ele>0.4</ele>
        <time>2020-08-29T12:28:51Z</time>
      </trkpt>
      <trkpt lat="51.215410765358" lon="4.482973300525">
        <ele>0</ele>
        <time>2020-08-29T12:28:58Z</time>
      </trkpt>
      <trkpt lat="51.215411687367" lon="4.482928708817">
        <ele>0</ele>
        <time>2020-08-29T12:29:01Z</time>
      </trkpt>
      <trkpt lat="51.21538126107" lon="4.482800717204">
        <ele>0</ele>
        <time>2020-08-29T12:29:12Z</time>
      </trkpt>
      <trkpt lat="51.215327197815" lon="4.48275830479">
        <ele>0</ele>
        <time>2020-08-29T12:29:19Z</time>
      </trkpt>
      <trkpt lat="51.215306494522" lon="4.482728465226">
        <ele>0</ele>
        <time>2020-08-29T12:29:22Z</time>
      </trkpt>
      <trkpt lat="51.215281265003" lon="4.482692758332">
        <ele>0</ele>
        <time>2020-08-29T12:29:26Z</time>
      </trkpt>
      <trkpt lat="51.215236421838" lon="4.482624445847">
        <ele>0</ele>
        <time>2020-08-29T12:29:33Z</time>
      </trkpt>
      <trkpt lat="51.215065933992" lon="4.482505674324">
        <ele>0</ele>
        <time>2020-08-29T12:29:53Z</time>
      </trkpt>
      <trkpt lat="51.214828390946" lon="4.482563341796">
        <ele>0</ele>
        <time>2020-08-29T12:30:19Z</time>
      </trkpt>
      <trkpt lat="51.214776004071" lon="4.482605251296">
        <ele>0</ele>
        <time>2020-08-29T12:30:25Z</time>
      </trkpt>
      <trkpt lat="51.214566624209" lon="4.483229535208">
        <ele>2.6</ele>
        <time>2020-08-29T12:31:10Z</time>
      </trkpt>
      <trkpt lat="51.214581376353" lon="4.483948953685">
        <ele>0.4</ele>
        <time>2020-08-29T12:31:56Z</time>
      </trkpt>
      <trkpt lat="51.214677852022" lon="4.484640460435">
        <ele>2.2</ele>
        <time>2020-08-29T12:32:40Z</time>
      </trkpt>
      <trkpt lat="51.214865355125" lon="4.484886804476">
        <ele>4.4</ele>
        <time>2020-08-29T12:33:04Z</time>
      </trkpt>
      <trkpt lat="51.214900642924" lon="4.484901305163">
        <ele>2.4</ele>
        <time>2020-08-29T12:33:09Z</time>
      </trkpt>
      <trkpt lat="51.21497054797" lon="4.484931982917">
        <ele>2</ele>
        <time>2020-08-29T12:33:17Z</time>
      </trkpt>
      <trkpt lat="51.215013630936" lon="4.484948076165">
        <ele>1.8</ele>
        <time>2020-08-29T12:33:21Z</time>
      </trkpt>
      <trkpt lat="51.2150602343" lon="4.484904238828">
        <ele>1</ele>
        <time>2020-08-29T12:33:27Z</time>
      </trkpt>
      <trkpt lat="51.215057384454" lon="4.484878338757">
        <ele>0.6</ele>
        <time>2020-08-29T12:33:29Z</time>
      </trkpt>
      <trkpt lat="51.215044224871" lon="4.484861826414">
        <ele>0.2</ele>
        <time>2020-08-29T12:33:31Z</time>
      </trkpt>
      <trkpt lat="51.215040788292" lon="4.484803320752">
        <ele>0</ele>
        <time>2020-08-29T12:33:37Z</time>
      </trkpt>
      <trkpt lat="51.215095186823" lon="4.484705336341">
        <ele>0</ele>
        <time>2020-08-29T12:33:45Z</time>
      </trkpt>
      <trkpt lat="51.215114549012" lon="4.484722770693">
        <ele>0</ele>
        <time>2020-08-29T12:33:47Z</time>
      </trkpt>
      <trkpt lat="51.215161487652" lon="4.48476744622">
        <ele>0</ele>
        <time>2020-08-29T12:33:51Z</time>
      </trkpt>
      <trkpt lat="51.215195685804" lon="4.484749760411">
        <ele>0</ele>
        <time>2020-08-29T12:33:55Z</time>
      </trkpt>
      <trkpt lat="51.215275900587" lon="4.484653033285">
        <ele>0</ele>
        <time>2020-08-29T12:34:04Z</time>
      </trkpt>
      <trkpt lat="51.215310350196" lon="4.484632413811">
        <ele>0</ele>
        <time>2020-08-29T12:34:08Z</time>
      </trkpt>
      <trkpt lat="51.215400874716" lon="4.483957084128">
        <ele>1.2</ele>
        <time>2020-08-29T12:34:50Z</time>
      </trkpt>
      <trkpt lat="51.215396013214" lon="4.483588783442">
        <ele>1</ele>
        <time>2020-08-29T12:35:10Z</time>
      </trkpt>
      <trkpt lat="51.215376986301" lon="4.4832436168">
        <ele>0.6</ele>
        <time>2020-08-29T12:35:33Z</time>
      </trkpt>
      <trkpt lat="51.21537958469" lon="4.48316482694">
        <ele>0</ele>
        <time>2020-08-29T12:35:38Z</time>
      </trkpt>
      <trkpt lat="51.215366760383" lon="4.48304748034">
        <ele>1</ele>
        <time>2020-08-29T12:35:47Z</time>
      </trkpt>
      <trkpt lat="51.215044643966" lon="4.482593013722">
        <ele>1.8</ele>
        <time>2020-08-29T12:36:19Z</time>
      </trkpt>
      <trkpt lat="51.214988485236" lon="4.482561833054">
        <ele>0</ele>
        <time>2020-08-29T12:36:35Z</time>
      </trkpt>
      <trkpt lat="51.215009607624" lon="4.482508105075">
        <ele>0</ele>
        <time>2020-08-29T12:36:38Z</time>
      </trkpt>
      <trkpt lat="51.21507280715" lon="4.482484551936">
        <ele>0</ele>
        <time>2020-08-29T12:36:45Z</time>
      </trkpt>
      <trkpt lat="51.215214712717" lon="4.482555211353">
        <ele>0.8</ele>
        <time>2020-08-29T12:36:58Z</time>
      </trkpt>
      <trkpt lat="51.215452004306" lon="4.483134233005">
        <ele>3.8</ele>
        <time>2020-08-29T12:37:45Z</time>
      </trkpt>
      <trkpt lat="51.215455440885" lon="4.483193241581">
        <ele>5</ele>
        <time>2020-08-29T12:37:53Z</time>
      </trkpt>
      <trkpt lat="51.215449657374" lon="4.483112775341">
        <ele>4</ele>
        <time>2020-08-29T12:38:05Z</time>
      </trkpt>
      <trkpt lat="51.215453680686" lon="4.483277731133">
        <ele>4.2</ele>
        <time>2020-08-29T12:38:24Z</time>
      </trkpt>
      <trkpt lat="51.215458793645" lon="4.483312683656">
        <ele>4.2</ele>
        <time>2020-08-29T12:38:27Z</time>
      </trkpt>
      <trkpt lat="51.215464828613" lon="4.483392730801">
        <ele>4.6</ele>
        <time>2020-08-29T12:38:34Z</time>
      </trkpt>
      <trkpt lat="51.215443957682" lon="4.48309441898">
        <ele>0</ele>
        <time>2020-08-29T12:39:33Z</time>
      </trkpt>
      <trkpt lat="51.215443790044" lon="4.483164407845">
        <ele>1.2</ele>
        <time>2020-08-29T12:39:48Z</time>
      </trkpt>
      <trkpt lat="51.21544747808" lon="4.483290303983">
        <ele>2.4</ele>
        <time>2020-08-29T12:39:58Z</time>
      </trkpt>
      <trkpt lat="51.215472707599" lon="4.483551400168">
        <ele>2.6</ele>
        <time>2020-08-29T12:40:16Z</time>
      </trkpt>
      <trkpt lat="51.215501373697" lon="4.484161267212">
        <ele>5.4</ele>
        <time>2020-08-29T12:40:55Z</time>
      </trkpt>
      <trkpt lat="51.215493494711" lon="4.484327480289">
        <ele>4.2</ele>
        <time>2020-08-29T12:41:05Z</time>
      </trkpt>
      <trkpt lat="51.215240612788" lon="4.484887055933">
        <ele>4.4</ele>
        <time>2020-08-29T12:41:46Z</time>
      </trkpt>
      <trkpt lat="51.215104071637" lon="4.484944807224">
        <ele>4</ele>
        <time>2020-08-29T12:42:07Z</time>
      </trkpt>
      <trkpt lat="51.215432809755" lon="4.484491346434">
        <ele>2.6</ele>
        <time>2020-08-29T12:42:52Z</time>
      </trkpt>
      <trkpt lat="51.215441443112" lon="4.484449856029">
        <ele>2.8</ele>
        <time>2020-08-29T12:42:55Z</time>
      </trkpt>
      <trkpt lat="51.215455943799" lon="4.484387327055">
        <ele>2.8</ele>
        <time>2020-08-29T12:42:59Z</time>
      </trkpt>
      <trkpt lat="51.215454099781" lon="4.484328905212">
        <ele>2.8</ele>
        <time>2020-08-29T12:43:03Z</time>
      </trkpt>
      <trkpt lat="51.215459799473" lon="4.484268220256">
        <ele>2.2</ele>
        <time>2020-08-29T12:43:07Z</time>
      </trkpt>
      <trkpt lat="51.215424427855" lon="4.483542431535">
        <ele>1.2</ele>
        <time>2020-08-29T12:43:51Z</time>
      </trkpt>
      <trkpt lat="51.215354606628" lon="4.482837429926">
        <ele>0.2</ele>
        <time>2020-08-29T12:44:34Z</time>
      </trkpt>
      <trkpt lat="51.214995023118" lon="4.482481031538">
        <ele>0</ele>
        <time>2020-08-29T12:45:16Z</time>
      </trkpt>
      <trkpt lat="51.214767454533" lon="4.482621763639">
        <ele>0</ele>
        <time>2020-08-29T12:45:38Z</time>
      </trkpt>
      <trkpt lat="51.214756390425" lon="4.482667444994">
        <ele>0</ele>
        <time>2020-08-29T12:45:41Z</time>
      </trkpt>
      <trkpt lat="51.214767454533" lon="4.482707845752">
        <ele>0</ele>
        <time>2020-08-29T12:45:44Z</time>
      </trkpt>
      <trkpt lat="51.214791007672" lon="4.482711952883">
        <ele>0</ele>
        <time>2020-08-29T12:45:46Z</time>
      </trkpt>
      <trkpt lat="51.214806681825" lon="4.482693680341">
        <ele>0</ele>
        <time>2020-08-29T12:45:48Z</time>
      </trkpt>
      <trkpt lat="51.215236338019" lon="4.482581027605">
        <ele>0.6</ele>
        <time>2020-08-29T12:46:28Z</time>
      </trkpt>
      <trkpt lat="51.215263579194" lon="4.482607514409">
        <ele>0.4</ele>
        <time>2020-08-29T12:46:31Z</time>
      </trkpt>
      <trkpt lat="51.215455776161" lon="4.483231798321">
        <ele>2.8</ele>
        <time>2020-08-29T12:47:11Z</time>
      </trkpt>
      <trkpt lat="51.215439515275" lon="4.483396921751">
        <ele>1.2</ele>
        <time>2020-08-29T12:47:32Z</time>
      </trkpt>
      <trkpt lat="51.215457117265" lon="4.483332548759">
        <ele>1</ele>
        <time>2020-08-29T12:47:44Z</time>
      </trkpt>
      <trkpt lat="51.215453513048" lon="4.483318718624">
        <ele>1.6</ele>
        <time>2020-08-29T12:47:48Z</time>
      </trkpt>
      <trkpt lat="51.215459715654" lon="4.483250573777">
        <ele>2</ele>
        <time>2020-08-29T12:48:11Z</time>
      </trkpt>
      <trkpt lat="51.215446304614" lon="4.483223835516">
        <ele>2.4</ele>
        <time>2020-08-29T12:50:00Z</time>
      </trkpt>
      <trkpt lat="51.215455608523" lon="4.48331151019">
        <ele>2.2</ele>
        <time>2020-08-29T12:50:19Z</time>
      </trkpt>
      <trkpt lat="51.21547430016" lon="4.483602026844">
        <ele>2.6</ele>
        <time>2020-08-29T12:50:38Z</time>
      </trkpt>
      <trkpt lat="51.215452842496" lon="4.483664471999">
        <ele>2.4</ele>
        <time>2020-08-29T12:50:43Z</time>
      </trkpt>
      <trkpt lat="51.215445382605" lon="4.48373982528">
        <ele>2</ele>
        <time>2020-08-29T12:50:49Z</time>
      </trkpt>
      <trkpt lat="51.215490393408" lon="4.483917773017">
        <ele>3.6</ele>
        <time>2020-08-29T12:51:00Z</time>
      </trkpt>
      <trkpt lat="51.215499278222" lon="4.484291019024">
        <ele>6</ele>
        <time>2020-08-29T12:51:22Z</time>
      </trkpt>
      <trkpt lat="51.215503385353" lon="4.484338460578">
        <ele>6.4</ele>
        <time>2020-08-29T12:51:25Z</time>
      </trkpt>
      <trkpt lat="51.215493410892" lon="4.484468380028">
        <ele>5.2</ele>
        <time>2020-08-29T12:51:34Z</time>
      </trkpt>
      <trkpt lat="51.215186381895" lon="4.48493927517">
        <ele>4.8</ele>
        <time>2020-08-29T12:52:23Z</time>
      </trkpt>
      <trkpt lat="51.215075573177" lon="4.484961990119">
        <ele>5.2</ele>
        <time>2020-08-29T12:52:42Z</time>
      </trkpt>
      <trkpt lat="51.2150434705" lon="4.484950004002">
        <ele>4.4</ele>
        <time>2020-08-29T12:52:46Z</time>
      </trkpt>
      <trkpt lat="51.214989239607" lon="4.484981268489">
        <ele>4.2</ele>
        <time>2020-08-29T12:52:52Z</time>
      </trkpt>
      <trkpt lat="51.21462856645" lon="4.484576841814">
        <ele>2.6</ele>
        <time>2020-08-29T12:53:35Z</time>
      </trkpt>
      <trkpt lat="51.214554051359" lon="4.483875192965">
        <ele>2.6</ele>
        <time>2020-08-29T12:54:20Z</time>
      </trkpt>
      <trkpt lat="51.21453301279" lon="4.48318410531">
        <ele>2.2</ele>
        <time>2020-08-29T12:55:02Z</time>
      </trkpt>
      <trkpt lat="51.214548184029" lon="4.483063908864">
        <ele>2.6</ele>
        <time>2020-08-29T12:55:09Z</time>
      </trkpt>
      <trkpt lat="51.214613227573" lon="4.482951339947">
        <ele>3.8</ele>
        <time>2020-08-29T12:55:19Z</time>
      </trkpt>
      <trkpt lat="51.214896200517" lon="4.482491341275">
        <ele>4</ele>
        <time>2020-08-29T12:55:59Z</time>
      </trkpt>
      <trkpt lat="51.215143131291" lon="4.482487653239">
        <ele>2.2</ele>
        <time>2020-08-29T12:56:19Z</time>
      </trkpt>
      <trkpt lat="51.215175317787" lon="4.48253031711">
        <ele>2</ele>
        <time>2020-08-29T12:56:23Z</time>
      </trkpt>
      <trkpt lat="51.215371035152" lon="4.482763836844">
        <ele>0</ele>
        <time>2020-08-29T12:56:45Z</time>
      </trkpt>
      <trkpt lat="51.215451417573" lon="4.483454924499">
        <ele>0</ele>
        <time>2020-08-29T12:57:26Z</time>
      </trkpt>
      <trkpt lat="51.215453680686" lon="4.483630106209">
        <ele>0</ele>
        <time>2020-08-29T12:57:47Z</time>
      </trkpt>
      <trkpt lat="51.215462146405" lon="4.483100873043">
        <ele>0.2</ele>
        <time>2020-08-29T12:58:29Z</time>
      </trkpt>
      <trkpt lat="51.215444795872" lon="4.483146722036">
        <ele>0.2</ele>
        <time>2020-08-29T12:58:33Z</time>
      </trkpt>
      <trkpt lat="51.215451501392" lon="4.483223081145">
        <ele>0.8</ele>
        <time>2020-08-29T12:58:49Z</time>
      </trkpt>
      <trkpt lat="51.215453093953" lon="4.483193912133">
        <ele>0.6</ele>
        <time>2020-08-29T12:58:51Z</time>
      </trkpt>
      <trkpt lat="51.215414369575" lon="4.483070530565">
        <ele>1.8</ele>
        <time>2020-08-29T12:59:09Z</time>
      </trkpt>
      <trkpt lat="51.215374639369" lon="4.483143117819">
        <ele>2.2</ele>
        <time>2020-08-29T12:59:15Z</time>
      </trkpt>
      <trkpt lat="51.21540473039" lon="4.483184775862">
        <ele>2.4</ele>
        <time>2020-08-29T12:59:24Z</time>
      </trkpt>
      <trkpt lat="51.21542736152" lon="4.48314806314">
        <ele>2.4</ele>
        <time>2020-08-29T12:59:29Z</time>
      </trkpt>
      <trkpt lat="51.215428702624" lon="4.48313632848">
        <ele>0.6</ele>
        <time>2020-08-29T12:59:38Z</time>
      </trkpt>
      <trkpt lat="51.215437168343" lon="4.483256692564">
        <ele>0</ele>
        <time>2020-08-29T12:59:50Z</time>
      </trkpt>
      <trkpt lat="51.21545334541" lon="4.483236743642">
        <ele>0</ele>
        <time>2020-08-29T13:00:00Z</time>
      </trkpt>
      <trkpt lat="51.21545166903" lon="4.483252250157">
        <ele>1.6</ele>
        <time>2020-08-29T13:00:16Z</time>
      </trkpt>
      <trkpt lat="51.215477988196" lon="4.483863625943">
        <ele>5.4</ele>
        <time>2020-08-29T13:00:57Z</time>
      </trkpt>
      <trkpt lat="51.215477317644" lon="4.483982648923">
        <ele>6</ele>
        <time>2020-08-29T13:01:05Z</time>
      </trkpt>
      <trkpt lat="51.215447897175" lon="4.48467273075">
        <ele>7.2</ele>
        <time>2020-08-29T13:01:51Z</time>
      </trkpt>
      <trkpt lat="51.215168025534" lon="4.485056370313">
        <ele>5</ele>
        <time>2020-08-29T13:02:28Z</time>
      </trkpt>
      <trkpt lat="51.215170121009" lon="4.485106494075">
        <ele>5</ele>
        <time>2020-08-29T13:02:31Z</time>
      </trkpt>
      <trkpt lat="51.215200463487" lon="4.485139267304">
        <ele>5.4</ele>
        <time>2020-08-29T13:02:35Z</time>
      </trkpt>
      <trkpt lat="51.215334825344" lon="4.485267175098">
        <ele>3.6</ele>
        <time>2020-08-29T13:03:20Z</time>
      </trkpt>
      <trkpt lat="51.215450663202" lon="4.485213028024">
        <ele>3.4</ele>
        <time>2020-08-29T13:03:32Z</time>
      </trkpt>
      <trkpt lat="51.215507911579" lon="4.485168520135">
        <ele>3</ele>
        <time>2020-08-29T13:03:37Z</time>
      </trkpt>
      <trkpt lat="51.215577565168" lon="4.484509199881">
        <ele>3.4</ele>
        <time>2020-08-29T13:04:20Z</time>
      </trkpt>
      <trkpt lat="51.215544372844" lon="4.483787183015">
        <ele>4.2</ele>
        <time>2020-08-29T13:05:03Z</time>
      </trkpt>
      <trkpt lat="51.215540014256" lon="4.483124090906">
        <ele>2.6</ele>
        <time>2020-08-29T13:05:45Z</time>
      </trkpt>
      <trkpt lat="51.215517131669" lon="4.482406684085">
        <ele>2</ele>
        <time>2020-08-29T13:06:27Z</time>
      </trkpt>
      <trkpt lat="51.215525513569" lon="4.482318674135">
        <ele>2.4</ele>
        <time>2020-08-29T13:06:33Z</time>
      </trkpt>
      <trkpt lat="51.215548228518" lon="4.482304424905">
        <ele>2</ele>
        <time>2020-08-29T13:06:35Z</time>
      </trkpt>
      <trkpt lat="51.215729193739" lon="4.482296126824">
        <ele>0.4</ele>
        <time>2020-08-29T13:06:52Z</time>
      </trkpt>
      <trkpt lat="51.215801864812" lon="4.482315824289">
        <ele>0.2</ele>
        <time>2020-08-29T13:07:00Z</time>
      </trkpt>
      <trkpt lat="51.215983584404" lon="4.482314818461">
        <ele>1</ele>
        <time>2020-08-29T13:07:17Z</time>
      </trkpt>
      <trkpt lat="51.216106965972" lon="4.482306017466">
        <ele>0.4</ele>
        <time>2020-08-29T13:07:29Z</time>
      </trkpt>
      <trkpt lat="51.216226910961" lon="4.482245835424">
        <ele>0.2</ele>
        <time>2020-08-29T13:07:45Z</time>
      </trkpt>
      <trkpt lat="51.216215595396" lon="4.482201243716">
        <ele>1.2</ele>
        <time>2020-08-29T13:07:49Z</time>
      </trkpt>
      <trkpt lat="51.21629069722" lon="4.481918773686">
        <ele>0.8</ele>
        <time>2020-08-29T13:08:21Z</time>
      </trkpt>
      <trkpt lat="51.216743738915" lon="4.481837217799">
        <ele>2</ele>
        <time>2020-08-29T13:09:03Z</time>
      </trkpt>
      <trkpt lat="51.21693694171" lon="4.481711154023">
        <ele>4.8</ele>
        <time>2020-08-29T13:09:27Z</time>
      </trkpt>
      <trkpt lat="51.216838957299" lon="4.481431533839">
        <ele>3.8</ele>
        <time>2020-08-29T13:09:53Z</time>
      </trkpt>
      <trkpt lat="51.216489432069" lon="4.481406136682">
        <ele>0.6</ele>
        <time>2020-08-29T13:10:47Z</time>
      </trkpt>
      <trkpt lat="51.216412067132" lon="4.481394402022">
        <ele>0.2</ele>
        <time>2020-08-29T13:11:15Z</time>
      </trkpt>
    </trkseg>
  </trk>
</gpx>